createdAt,value
2023-01-07T00:00:35.405Z,1.92
2023-01-07T00:03:37.879Z,1.92
2023-01-07T00:06:42.087Z,2.63
2023-01-07T00:12:44.927Z,1.95
2023-01-07T00:15:46.496Z,2.10
2023-01-07T00:18:48.125Z,2.10
2023-01-07T00:21:49.634Z,1.98
2023-01-07T00:24:51.199Z,1.85
2023-01-07T00:27:52.743Z,1.73
2023-01-07T00:31:00.061Z,2.05
2023-01-07T00:34:01.967Z,1.90
2023-01-07T00:37:21.958Z,2.03
2023-01-07T00:40:23.783Z,1.65
2023-01-07T00:43:25.681Z,1.90
2023-01-07T00:46:27.464Z,2.13
2023-01-07T00:49:29.620Z,2.38
2023-01-07T00:52:31.128Z,2.03
2023-01-07T00:55:33.311Z,2.25
2023-01-07T00:58:34.968Z,1.60
2023-01-07T01:01:36.647Z,1.60
2023-01-07T01:04:38.246Z,2.00
2023-01-07T01:07:40.487Z,2.40
2023-01-07T01:10:41.966Z,2.75
2023-01-07T01:13:44.952Z,2.85
2023-01-07T01:16:46.521Z,2.40
2023-01-07T01:19:48.030Z,2.75
2023-01-07T01:22:49.543Z,2.30
2023-01-07T01:25:51.075Z,2.17
2023-01-07T01:28:52.646Z,1.85
2023-01-07T01:31:58.022Z,1.80
2023-01-07T01:34:59.695Z,2.10
2023-01-07T01:38:01.857Z,1.77
2023-01-07T01:41:07.405Z,1.90
2023-01-07T01:44:29.139Z,2.30
2023-01-07T01:47:49.223Z,2.08
2023-01-07T01:50:52.342Z,2.08
2023-01-07T01:53:56.085Z,2.78
2023-01-07T01:57:00.378Z,2.70
2023-01-07T02:00:02.854Z,2.75
2023-01-07T02:03:18.147Z,2.45
2023-01-07T02:06:27.080Z,1.77
2023-01-07T02:09:30.260Z,2.15
2023-01-07T02:12:42.897Z,2.38
2023-01-07T02:16:13.587Z,1.67
2023-01-07T02:19:53.596Z,1.88
2023-01-07T02:23:22.629Z,1.52
2023-01-07T02:26:56.988Z,1.70
2023-01-07T02:30:22.903Z,2.15
2023-01-07T02:33:28.719Z,1.85
2023-01-07T02:36:49.988Z,1.90
2023-01-07T02:39:58.601Z,1.63
2023-01-07T02:43:16.370Z,1.35
2023-01-07T02:46:48.335Z,0.75
2023-01-07T02:49:50.044Z,1.35
2023-01-07T02:52:52.232Z,1.95
2023-01-07T02:56:05.869Z,1.33
2023-01-07T02:59:14.640Z,1.58
2023-01-07T03:02:42.486Z,1.48
2023-01-07T03:06:24.448Z,1.45
2023-01-07T03:09:28.006Z,1.30
2023-01-07T03:13:08.661Z,1.83
2023-01-07T03:16:18.314Z,1.23
2023-01-07T03:19:28.203Z,1.27
2023-01-07T03:22:33.116Z,1.15
2023-01-07T03:25:37.851Z,1.25
2023-01-07T03:28:42.451Z,2.00
2023-01-07T03:32:13.808Z,3.45
2023-01-07T03:35:15.853Z,2.88
2023-01-07T03:38:20.791Z,1.77
2023-01-07T03:41:41.085Z,1.45
2023-01-07T03:44:42.717Z,1.92
2023-01-07T03:47:47.634Z,2.20
2023-01-07T03:50:49.639Z,1.80
2023-01-07T03:53:51.559Z,2.20
2023-01-07T03:56:53.147Z,2.38
2023-01-07T03:59:55.874Z,2.45
2023-01-07T04:02:57.481Z,2.60
2023-01-07T04:06:06.447Z,2.38
2023-01-07T04:09:08.076Z,1.90
2023-01-07T04:12:09.926Z,1.88
2023-01-07T04:15:11.644Z,1.92
2023-01-07T04:18:13.317Z,1.92
2023-01-07T04:21:14.908Z,1.73
2023-01-07T04:24:16.638Z,1.63
2023-01-07T04:27:18.682Z,2.33
2023-01-07T04:30:20.362Z,1.95
2023-01-07T04:33:21.915Z,2.30
2023-01-07T04:36:23.782Z,2.28
2023-01-07T04:39:25.339Z,2.15
2023-01-07T04:42:27.740Z,2.63
2023-01-07T04:45:29.355Z,1.73
2023-01-07T04:48:31.953Z,2.05
2023-01-07T04:51:34.472Z,1.90
2023-01-07T04:54:36.104Z,2.50
2023-01-07T04:57:38.908Z,2.13
2023-01-07T05:00:41.424Z,1.83
2023-01-07T05:03:43.244Z,1.92
2023-01-07T05:06:44.766Z,1.88
2023-01-07T05:09:47.515Z,1.75
2023-01-07T05:12:50.231Z,2.08
2023-01-07T05:15:53.354Z,2.28
2023-01-07T05:18:55.469Z,2.65
2023-01-07T05:21:57.216Z,2.13
2023-01-07T05:24:58.712Z,2.10
2023-01-07T05:28:02.114Z,2.23
2023-01-07T05:31:05.737Z,2.40
2023-01-07T05:34:08.473Z,1.88
2023-01-07T05:37:10.349Z,2.20
2023-01-07T05:40:13.659Z,2.45
2023-01-07T05:43:16.063Z,4.25
2023-01-07T05:46:17.766Z,2.88
2023-01-07T05:49:19.325Z,2.42
2023-01-07T05:52:20.829Z,2.53
2023-01-07T05:55:22.334Z,2.30
2023-01-07T05:58:24.354Z,2.20
2023-01-07T06:01:25.921Z,3.00
2023-01-07T06:04:28.105Z,2.97
2023-01-07T06:07:29.662Z,3.35
2023-01-07T06:10:31.187Z,3.00
2023-01-07T06:13:33.361Z,2.70
2023-01-07T06:16:35.383Z,2.85
2023-01-07T06:19:36.993Z,2.47
2023-01-07T06:22:38.439Z,2.80
2023-01-07T06:25:39.896Z,2.53
2023-01-07T06:28:41.393Z,2.15
2023-01-07T06:31:42.941Z,1.42
2023-01-07T06:34:44.380Z,1.73
2023-01-07T06:37:45.901Z,1.17
2023-01-07T06:40:47.420Z,1.23
2023-01-07T06:43:48.999Z,1.10
2023-01-07T06:46:50.637Z,0.85
2023-01-07T06:49:52.793Z,1.20
2023-01-07T06:52:54.296Z,1.50
2023-01-07T06:55:55.732Z,1.42
2023-01-07T06:58:57.285Z,1.38
2023-01-07T07:01:58.832Z,1.98
2023-01-07T07:05:00.499Z,3.13
2023-01-07T07:08:02.042Z,3.15
2023-01-07T07:11:03.668Z,3.35
2023-01-07T07:14:05.259Z,4.07
2023-01-07T07:17:06.782Z,3.47
2023-01-07T07:20:08.929Z,3.08
2023-01-07T07:23:10.350Z,3.40
2023-01-07T07:26:12.051Z,2.70
2023-01-07T07:29:13.502Z,4.10
2023-01-07T07:32:14.985Z,3.42
2023-01-07T07:35:16.562Z,3.45
2023-01-07T07:38:18.993Z,3.17
2023-01-07T07:41:21.377Z,3.20
2023-01-07T07:44:23.033Z,2.78
2023-01-07T07:47:24.559Z,2.88
2023-01-07T07:50:26.186Z,2.47
2023-01-07T07:53:27.749Z,2.92
2023-01-07T07:56:29.413Z,2.95
2023-01-07T07:59:30.962Z,3.22
2023-01-07T08:02:32.461Z,3.08
2023-01-07T08:05:34.088Z,3.65
2023-01-07T08:08:35.577Z,3.13
2023-01-07T08:11:37.076Z,3.38
2023-01-07T08:14:38.539Z,3.13
2023-01-07T08:17:40.010Z,2.97
2023-01-07T08:20:41.545Z,2.38
2023-01-07T08:23:43.180Z,2.92
2023-01-07T08:26:44.717Z,3.10
2023-01-07T08:29:46.334Z,2.90
2023-01-07T08:32:48.300Z,3.30
2023-01-07T08:35:49.826Z,3.10
2023-01-07T08:38:55.084Z,3.10
2023-01-07T08:41:56.602Z,3.03
2023-01-07T08:44:58.105Z,3.33
2023-01-07T08:48:00.580Z,3.00
2023-01-07T08:51:02.103Z,3.80
2023-01-07T08:54:03.805Z,3.40
2023-01-07T08:57:05.297Z,4.72
2023-01-07T09:00:07.731Z,6.03
2023-01-07T09:03:09.352Z,4.25
2023-01-07T09:06:10.973Z,4.57
2023-01-07T09:09:14.380Z,4.75
2023-01-07T09:12:15.863Z,4.38
2023-01-07T09:15:17.568Z,3.78
2023-01-07T09:18:20.397Z,3.50
2023-01-07T09:21:21.904Z,3.70
2023-01-07T09:24:23.418Z,3.30
2023-01-07T09:27:26.787Z,4.70
2023-01-07T09:30:28.472Z,6.47
2023-01-07T09:33:30.182Z,4.85
2023-01-07T09:36:31.662Z,5.50
2023-01-07T09:39:33.227Z,3.60
2023-01-07T09:47:18.986Z,4.03
2023-01-07T09:50:37.970Z,3.10
2023-01-07T09:53:41.389Z,3.35
2023-01-07T09:56:42.987Z,3.40
2023-01-07T09:59:45.302Z,3.72
2023-01-07T10:02:55.905Z,3.83
2023-01-07T10:06:09.811Z,3.40
2023-01-07T10:09:29.549Z,3.25
2023-01-07T10:12:54.133Z,3.33
2023-01-07T10:19:05.784Z,4.20
2023-01-07T10:22:22.603Z,4.10
2023-01-07T10:25:32.114Z,3.70
2023-01-07T10:28:44.229Z,4.20
2023-01-07T10:31:46.844Z,4.20
2023-01-07T10:34:51.167Z,4.85
2023-01-07T10:38:26.839Z,5.03
2023-01-07T10:42:13.635Z,3.97
2023-01-07T10:45:36.562Z,4.70
2023-01-07T10:49:02.701Z,4.75
2023-01-07T10:52:51.610Z,4.38
2023-01-07T11:05:22.690Z,4.15
2023-01-07T11:08:32.467Z,4.10
2023-01-07T11:11:34.023Z,4.00
2023-01-07T11:14:40.893Z,3.63
2023-01-07T11:17:52.146Z,3.58
2023-01-07T11:20:55.989Z,3.30
2023-01-07T11:23:58.435Z,3.40
2023-01-07T11:27:15.739Z,3.00
2023-01-07T11:30:26.191Z,3.38
2023-01-07T11:34:03.419Z,3.40
2023-01-07T11:36:59.321Z,3.15
2023-01-07T11:40:05.255Z,2.83
2023-01-07T11:43:30.904Z,3.03
2023-01-07T11:46:33.113Z,3.00
2023-01-07T11:49:43.767Z,3.22
2023-01-07T11:52:55.936Z,2.70
2023-01-07T11:55:57.457Z,2.78
2023-01-07T11:59:20.740Z,2.40
2023-01-07T12:02:25.760Z,2.95
2023-01-07T12:05:28.143Z,2.88
2023-01-07T12:08:29.803Z,2.30
2023-01-07T12:11:34.097Z,2.47
2023-01-07T12:14:38.960Z,2.83
2023-01-07T12:17:46.106Z,2.50
2023-01-07T12:21:09.868Z,2.28
2023-01-07T12:24:36.380Z,2.53
2023-01-07T12:27:50.472Z,2.10
2023-01-07T12:31:19.744Z,2.40
2023-01-07T12:34:47.139Z,2.15
2023-01-07T12:38:14.963Z,1.90
2023-01-07T12:41:27.255Z,2.15
2023-01-07T12:44:28.837Z,2.53
2023-01-07T12:47:38.313Z,2.50
2023-01-07T12:50:47.998Z,2.22
2023-01-07T12:54:26.686Z,2.15
2023-01-07T12:57:36.729Z,2.58
2023-01-07T13:00:54.355Z,2.78
2023-01-07T13:04:28.136Z,2.10
2023-01-07T13:07:37.853Z,2.63
2023-01-07T13:10:43.129Z,2.15
2023-01-07T13:13:49.708Z,2.35
2023-01-07T13:16:51.246Z,2.60
2023-01-07T13:19:53.543Z,2.47
2023-01-07T13:22:56.675Z,2.53
2023-01-07T13:26:32.594Z,2.40
2023-01-07T13:29:58.480Z,2.47
2023-01-07T13:33:26.321Z,2.15
2023-01-07T13:36:39.827Z,2.33
2023-01-07T13:39:53.480Z,2.40
2023-01-07T13:42:59.786Z,2.70
2023-01-07T13:46:12.042Z,2.45
2023-01-07T13:49:29.126Z,2.30
2023-01-07T13:52:33.407Z,2.30
2023-01-07T13:55:40.904Z,2.63
2023-01-07T13:58:53.516Z,2.58
2023-01-07T14:02:16.257Z,2.20
2023-01-07T14:05:17.771Z,3.47
2023-01-07T14:08:28.369Z,3.85
2023-01-07T14:11:29.897Z,3.10
2023-01-07T14:14:49.425Z,2.78
2023-01-07T14:18:28.450Z,2.38
2023-01-07T14:21:56.571Z,2.72
2023-01-07T14:25:22.144Z,2.63
2023-01-07T14:28:52.859Z,2.90
2023-01-07T14:32:18.434Z,3.00
2023-01-07T14:35:32.371Z,2.72
2023-01-07T14:38:33.809Z,3.50
2023-01-07T14:41:35.403Z,3.55
2023-01-07T14:44:36.952Z,3.63
2023-01-07T14:47:41.214Z,3.40
2023-01-07T14:50:57.094Z,4.85
2023-01-07T14:54:32.719Z,4.80
2023-01-07T14:57:49.466Z,6.78
2023-01-07T15:01:00.200Z,2.92
2023-01-07T15:04:34.693Z,3.33
2023-01-07T15:07:40.021Z,2.80
2023-01-07T15:11:02.346Z,2.97
2023-01-07T15:14:33.116Z,3.25
2023-01-07T15:17:38.992Z,3.10
2023-01-07T15:20:49.638Z,3.40
2023-01-07T15:24:19.378Z,9.10
2023-01-07T15:27:29.753Z,4.70
2023-01-07T15:30:41.089Z,3.70
2023-01-07T15:34:04.006Z,3.00
2023-01-07T15:37:07.356Z,3.63
2023-01-07T15:40:16.321Z,3.90
2023-01-07T15:43:23.735Z,4.13
2023-01-07T15:46:27.108Z,6.10
2023-01-07T15:49:29.678Z,8.02
2023-01-07T15:52:31.298Z,7.10
2023-01-07T15:55:38.556Z,8.70
2023-01-07T15:58:45.790Z,10.48
2023-01-07T16:01:49.503Z,10.02
2023-01-07T16:04:59.605Z,10.95
2023-01-07T16:08:01.587Z,14.63
2023-01-07T16:11:09.080Z,10.82
2023-01-07T16:14:35.517Z,8.55
2023-01-07T16:17:49.946Z,7.50
2023-01-07T16:27:04.804Z,8.13
2023-01-07T16:30:15.157Z,8.60
2023-01-07T16:33:21.281Z,8.93
2023-01-07T16:36:28.318Z,9.85
2023-01-07T16:39:33.570Z,9.82
2023-01-07T16:42:35.067Z,11.82
2023-01-07T16:45:37.072Z,15.18
2023-01-07T16:48:38.509Z,10.23
2023-01-07T16:51:47.979Z,13.00
2023-01-07T16:54:50.132Z,11.57
2023-01-07T16:57:51.731Z,13.05
2023-01-07T17:00:56.155Z,11.90
2023-01-07T17:04:01.295Z,10.70
2023-01-07T17:11:52.107Z,9.30
2023-01-07T17:14:53.801Z,8.73
2023-01-07T17:18:15.175Z,9.10
2023-01-07T17:21:38.507Z,8.93
2023-01-07T17:24:39.966Z,8.60
2023-01-07T17:27:51.859Z,8.35
2023-01-07T17:30:53.607Z,7.68
2023-01-07T17:33:55.873Z,8.07
2023-01-07T17:36:57.416Z,7.75
2023-01-07T17:39:58.981Z,8.02
2023-01-07T17:43:18.767Z,7.30
2023-01-07T17:46:20.392Z,9.75
2023-01-07T17:49:22.066Z,8.98
2023-01-07T17:52:23.765Z,8.57
2023-01-07T17:55:28.996Z,13.52
2023-01-07T17:58:33.326Z,15.55
2023-01-07T18:01:35.045Z,16.33
2023-01-07T18:04:36.620Z,15.63
2023-01-07T18:07:38.229Z,14.05
2023-01-07T18:10:58.246Z,15.35
2023-01-07T18:14:00.117Z,20.42
2023-01-07T18:17:01.657Z,18.85
2023-01-07T18:20:03.304Z,16.90
2023-01-07T18:23:04.801Z,10.95
2023-01-07T18:26:07.254Z,22.33
2023-01-07T18:29:10.981Z,11.15
2023-01-07T18:32:12.508Z,10.13
2023-01-07T18:35:14.555Z,8.85
2023-01-07T18:38:16.500Z,8.07
2023-01-07T18:41:18.112Z,8.70
2023-01-07T18:44:21.742Z,8.63
2023-01-07T18:47:23.289Z,7.82
2023-01-07T18:50:24.861Z,9.43
2023-01-07T18:53:27.307Z,10.30
2023-01-07T18:56:28.907Z,14.10
2023-01-07T18:59:30.422Z,9.60
2023-01-07T19:02:31.992Z,7.82
2023-01-07T19:05:33.614Z,14.45
2023-01-07T19:08:35.245Z,11.13
2023-01-07T19:11:38.312Z,16.88
2023-01-07T19:14:40.580Z,10.02
2023-01-07T19:17:42.115Z,11.13
2023-01-07T19:20:43.625Z,19.40
2023-01-07T19:23:47.053Z,17.90
2023-01-07T19:26:48.839Z,13.35
2023-01-07T19:29:50.398Z,10.07
2023-01-07T19:32:53.163Z,9.52
2023-01-07T19:36:04.965Z,13.18
2023-01-07T19:39:06.517Z,14.10
2023-01-07T19:42:09.864Z,7.97
2023-01-07T19:45:11.569Z,7.80
2023-01-07T19:48:13.131Z,8.48
2023-01-07T19:51:14.777Z,8.95
2023-01-07T19:54:17.366Z,7.68
2023-01-07T19:57:18.876Z,7.25
2023-01-07T20:00:20.385Z,8.07
2023-01-07T20:03:21.893Z,7.03
2023-01-07T20:06:29.227Z,8.30
2023-01-07T20:09:30.839Z,7.25
2023-01-07T20:12:33.025Z,6.35
2023-01-07T20:15:34.630Z,6.43
2023-01-07T20:18:40.632Z,6.13
2023-01-07T20:21:42.259Z,5.90
2023-01-07T20:24:43.753Z,5.82
2023-01-07T20:27:45.278Z,8.02
2023-01-07T20:30:46.877Z,7.95
2023-01-07T20:33:50.346Z,6.30
2023-01-07T20:36:51.961Z,6.47
2023-01-07T20:39:56.885Z,5.40
2023-01-07T20:42:58.351Z,5.22
2023-01-07T20:46:02.212Z,4.53
2023-01-07T20:49:03.751Z,4.25
2023-01-07T20:52:05.491Z,4.78
2023-01-07T20:55:07.374Z,4.95
2023-01-07T20:58:08.930Z,6.85
2023-01-07T21:01:19.090Z,15.90
2023-01-07T21:04:20.671Z,20.63
2023-01-07T21:07:22.169Z,6.70
2023-01-07T21:10:23.670Z,4.63
2023-01-07T21:13:25.662Z,4.15
2023-01-07T21:16:28.481Z,4.10
2023-01-07T21:19:30.016Z,3.85
2023-01-07T21:22:31.517Z,4.30
2023-01-07T21:25:33.041Z,4.50
2023-01-07T21:28:35.516Z,4.00
2023-01-07T21:31:37.061Z,3.97
2023-01-07T21:34:38.588Z,4.28
2023-01-07T21:37:40.159Z,4.20
2023-01-07T21:40:41.719Z,4.03
2023-01-07T21:43:44.254Z,3.53
2023-01-07T21:46:45.813Z,3.30
2023-01-07T21:49:47.355Z,3.58
2023-01-07T21:52:48.945Z,3.60
2023-01-07T21:55:54.502Z,3.53
2023-01-07T21:58:56.022Z,3.70
2023-01-07T22:01:57.783Z,3.70
2023-01-07T22:04:59.370Z,3.95
2023-01-07T22:08:01.305Z,4.20
2023-01-07T22:11:02.962Z,3.88
2023-01-07T22:14:04.510Z,4.45
2023-01-07T22:17:07.510Z,3.92
2023-01-07T22:20:09.797Z,3.95
2023-01-07T22:23:17.363Z,3.60
2023-01-07T22:26:19.880Z,4.00
2023-01-07T22:29:21.624Z,4.05
2023-01-07T22:32:23.121Z,5.57
2023-01-07T22:35:24.910Z,8.73
2023-01-07T22:38:27.837Z,6.82
2023-01-07T22:41:31.396Z,9.52
2023-01-07T22:44:42.771Z,4.30
2023-01-07T22:47:48.349Z,3.85
2023-01-07T22:50:53.347Z,3.90
2023-01-07T22:53:57.880Z,4.15
2023-01-07T22:57:00.119Z,5.38
2023-01-07T23:00:02.178Z,4.53
2023-01-07T23:03:04.714Z,5.00
2023-01-07T23:06:06.493Z,5.00
2023-01-07T23:09:08.014Z,4.40
2023-01-07T23:12:11.039Z,4.18
2023-01-07T23:15:13.146Z,4.60
2023-01-07T23:18:14.837Z,4.45
2023-01-07T23:21:16.360Z,4.38
2023-01-07T23:24:18.524Z,3.83
2023-01-07T23:27:20.067Z,4.28
2023-01-07T23:30:21.805Z,4.13
2023-01-07T23:33:23.309Z,4.85
2023-01-07T23:36:24.948Z,4.50
2023-01-07T23:39:26.461Z,4.28
2023-01-07T23:42:28.118Z,3.90
2023-01-07T23:45:29.674Z,4.05
2023-01-07T23:48:34.167Z,4.93
2023-01-07T23:51:35.652Z,4.00
2023-01-07T23:54:37.089Z,3.90
2023-01-07T23:57:38.561Z,3.83
